Time;durP1;ratioP1;P1;durP2;ratioP2;P2;SDS_P1;SDS_P2;PMS_P1;PMS_P2;Temp;Humidity;BMP_temperature;BMP_pressure;BME280_temperature;BME280_humidity;BME280_pressure;Samples;Min_cycle;Max_cycle;Signal;HPM_P1;HPM_P2
2021/10/12 00:00:58;;;;;;;;;;;;;;;5.89;100.00;101130.44;5093005;28;19989;-73
2021/10/12 00:03:24;;;;;;;;;;;;;;;5.86;100.00;101129.63;5093028;28;19959;-73
2021/10/12 00:05:52;;;;;;;;;;;;;;;5.83;100.00;101127.13;5092913;28;20015;-73
2021/10/12 00:08:18;;;;;;;;;;;;;;;5.92;100.00;101124.84;5093052;28;20014;-73
2021/10/12 00:10:44;;;;;;;;;;;;;;;5.91;100.00;101123.16;5092953;28;20009;-73
2021/10/12 00:13:11;;;;;;;;;;;;;;;5.89;100.00;101119.66;5092800;28;19930;-73
2021/10/12 00:15:37;;;;;;;;;;;;;;;5.86;100.00;101121.53;5092742;28;19967;-73
2021/10/12 00:18:03;;;;;;;;;;;;;;;5.82;100.00;101116.44;5092683;28;19924;-73
2021/10/12 00:20:30;;;;;;;;;;;;;;;5.75;100.00;101120.41;5092655;28;20383;-73
2021/10/12 00:22:57;;;;;;;;;;;;;;;5.75;100.00;101115.88;5091752;28;19924;-73
2021/10/12 00:25:24;;;;;;;;;;;;;;;5.69;100.00;101122.50;5092789;28;20026;-73
2021/10/12 00:27:51;;;;;;;;;;;;;;;5.68;100.00;101118.06;5092479;28;19924;-73
2021/10/12 00:30:17;;;;;;;;;;;;;;;5.64;100.00;101118.31;5091334;28;19968;-73
2021/10/12 00:32:43;;;;;;;;;;;;;;;5.65;100.00;101118.22;5092164;28;20027;-68
2021/10/12 00:35:13;;;;;;;;;;;;;;;5.66;100.00;101109.16;5091450;28;19973;-69
2021/10/12 00:37:39;;;;;;;;;;;;;;;5.66;100.00;101114.56;5092168;28;20018;-68
2021/10/12 00:40:08;;;;;;;;;;;;;;;5.61;100.00;101113.97;5092497;28;19930;-68
2021/10/12 00:42:34;;;;;;;;;;;;;;;5.60;100.00;101104.13;5073906;28;20371;-68
2021/10/12 00:45:01;;;;;;;;;;;;;;;5.55;100.00;101099.97;5092234;28;20014;-68
2021/10/12 00:47:27;;;;;;;;;;;;;;;5.56;100.00;101101.69;5092330;28;20448;-68
2021/10/12 00:49:54;;;;;;;;;;;;;;;5.53;100.00;101098.22;5091902;28;19924;-68
2021/10/12 00:52:21;;;;;;;;;;;;;;;5.51;100.00;101093.88;5092277;28;20011;-68
2021/10/12 00:54:47;;;;;;;;;;;;;;;5.52;100.00;101090.22;5091922;28;19967;-69
2021/10/12 00:57:15;;;;;;;;;;;;;;;5.54;100.00;101088.31;5091965;28;19967;-69
2021/10/12 00:59:42;;;;;;;;;;;;;;;5.57;100.00;101082.75;5091969;28;19930;-68
2021/10/12 01:02:09;;;;;;;;;;;;;;;5.57;100.00;101081.88;5092107;28;20355;-73
2021/10/12 01:04:35;;;;;;;;;;;;;;;5.59;100.00;101069.22;5091915;28;20077;-73
2021/10/12 01:07:03;;;;;;;;;;;;;;;5.60;100.00;101074.50;5091617;28;19928;-73
2021/10/12 01:09:29;;;;;;;;;;;;;;;5.59;100.00;101071.91;5090754;28;19924;-73
2021/10/12 01:11:55;;;;;;;;;;;;;;;5.60;100.00;101081.69;5090605;28;20030;-73
2021/10/12 01:14:23;;;;;;;;;;;;;;;5.60;100.00;101066.44;5091842;28;20387;-73
2021/10/12 01:16:49;;;;;;;;;;;;;;;5.57;100.00;101069.28;5091579;28;20277;-73
2021/10/12 01:19:16;;;;;;;;;;;;;;;5.57;100.00;101068.41;5093601;28;19967;-73
2021/10/12 01:21:45;;;;;;;;;;;;;;;5.52;100.00;101064.16;5092256;28;19958;-73
2021/10/12 01:24:12;;;;;;;;;;;;;;;5.50;100.00;101065.19;5090513;28;20014;-73
2021/10/12 01:26:39;;;;;;;;;;;;;;;5.50;100.00;101060.66;5091298;28;20026;-73
2021/10/12 01:29:06;;;;;;;;;;;;;;;5.53;100.00;101048.84;5091604;28;20379;-73
2021/10/12 01:31:33;;;;;;;;;;;;;;;5.50;100.00;101043.66;5091600;28;19977;-73
2021/10/12 01:33:59;;;;;;;;;;;;;;;5.49;100.00;101052.66;5091304;28;20011;-73
2021/10/12 01:36:26;;;;;;;;;;;;;;;5.46;100.00;101050.16;5091444;28;19928;-73
2021/10/12 01:38:54;;;;;;;;;;;;;;;5.49;100.00;101047.28;5091400;28;19924;-73
2021/10/12 01:41:20;;;;;;;;;;;;;;;5.49;100.00;101034.72;5091409;28;19924;-73
2021/10/12 01:43:46;;;;;;;;;;;;;;;5.54;100.00;101034.44;5091012;28;20027;-73
2021/10/12 01:46:13;;;;;;;;;;;;;;;5.56;100.00;101027.16;5091454;28;20362;-73
2021/10/12 01:48:39;;;;;;;;;;;;;;;5.58;100.00;101024.38;5091427;28;19924;-73
2021/10/12 01:51:05;;;;;;;;;;;;;;;5.61;100.00;101030.47;5091503;28;20039;-73
2021/10/12 01:53:31;;;;;;;;;;;;;;;5.58;100.00;101019.84;5091289;28;19924;-73
2021/10/12 01:55:59;;;;;;;;;;;;;;;5.54;100.00;101012.91;5091176;28;20019;-73
2021/10/12 01:58:25;;;;;;;;;;;;;;;5.49;100.00;101012.28;5091549;28;20399;-73
2021/10/12 02:00:51;;;;;;;;;;;;;;;5.48;100.00;101014.13;5091151;28;19975;-73
2021/10/12 02:03:18;;;;;;;;;;;;;;;5.45;100.00;101006.22;5090975;28;20380;-73
2021/10/12 02:05:44;;;;;;;;;;;;;;;5.45;100.00;100999.94;5091612;28;20018;-73
2021/10/12 02:08:10;;;;;;;;;;;;;;;5.49;100.00;101001.50;5091174;28;20469;-73
2021/10/12 02:10:37;;;;;;;;;;;;;;;5.54;100.00;100996.75;5091307;28;20014;-73
2021/10/12 02:13:04;;;;;;;;;;;;;;;5.57;100.00;100995.69;5091195;28;20352;-73
2021/10/12 02:15:31;;;;;;;;;;;;;;;5.53;100.00;100978.84;5091164;28;20353;-73
2021/10/12 02:17:57;;;;;;;;;;;;;;;5.56;100.00;100983.19;5091165;28;19934;-73
2021/10/12 02:20:23;;;;;;;;;;;;;;;5.56;100.00;100977.78;5091182;28;20422;-73
2021/10/12 02:22:50;;;;;;;;;;;;;;;5.54;100.00;100975.19;5090604;28;19968;-73
2021/10/12 02:25:16;;;;;;;;;;;;;;;5.53;100.00;100970.75;5091009;28;19931;-73
2021/10/12 02:27:42;;;;;;;;;;;;;;;5.53;100.00;100976.16;5091045;28;20019;-73
2021/10/12 02:30:10;;;;;;;;;;;;;;;5.53;100.00;100971.66;5091081;28;20467;-73
2021/10/12 02:32:37;;;;;;;;;;;;;;;5.52;100.00;100977.97;5090851;28;20007;-73
2021/10/12 02:35:03;;;;;;;;;;;;;;;5.50;100.00;100971.78;5090952;28;20027;-73
2021/10/12 02:37:30;;;;;;;;;;;;;;;5.45;100.00;100963.13;5090480;28;20023;-73
2021/10/12 02:39:56;;;;;;;;;;;;;;;5.44;100.00;100969.47;5090963;28;20023;-73
2021/10/12 02:42:22;;;;;;;;;;;;;;;5.46;100.00;100962.16;5090775;28;19924;-73
2021/10/12 02:44:48;;;;;;;;;;;;;;;5.43;100.00;100946.19;5090643;28;20019;-72
2021/10/12 02:47:16;;;;;;;;;;;;;;;5.42;100.00;100946.28;5093763;28;19950;-73
2021/10/12 02:49:42;;;;;;;;;;;;;;;5.44;100.00;100947.94;5094408;28;20014;-73
2021/10/12 02:52:09;;;;;;;;;;;;;;;5.46;100.00;100932.53;5094400;28;20016;-73
2021/10/12 02:54:35;;;;;;;;;;;;;;;5.50;100.00;100938.63;5094172;28;20413;-73
2021/10/12 02:57:01;;;;;;;;;;;;;;;5.50;100.00;100942.19;5094106;28;19928;-73
2021/10/12 02:59:27;;;;;;;;;;;;;;;5.53;100.00;100950.09;5094362;28;19924;-69
2021/10/12 03:01:54;;;;;;;;;;;;;;;5.52;100.00;100944.81;5094257;28;20295;-69
2021/10/12 03:04:21;;;;;;;;;;;;;;;5.49;100.00;100951.22;5094486;28;19924;-69
2021/10/12 03:06:48;;;;;;;;;;;;;;;5.49;100.00;100951.22;5093992;28;20018;-69
2021/10/12 03:09:14;;;;;;;;;;;;;;;5.51;100.00;100948.44;5094206;28;19974;-69
2021/10/12 03:11:40;;;;;;;;;;;;;;;5.49;100.00;100951.22;5094066;28;20018;-69
2021/10/12 03:14:06;;;;;;;;;;;;;;;5.49;100.00;100939.56;5093770;28;20030;-69
2021/10/12 03:16:33;;;;;;;;;;;;;;;5.46;100.00;100937.91;5093883;28;20014;-69
2021/10/12 03:18:59;;;;;;;;;;;;;;;5.49;100.00;100932.38;5095190;28;20400;-69
2021/10/12 03:21:33;;;;;;;;;;;;;;;5.49;100.00;100929.69;5093924;28;20022;-69
2021/10/12 03:23:59;;;;;;;;;;;;;;;5.53;100.00;100925.88;5093713;28;19932;-69
2021/10/12 03:26:25;;;;;;;;;;;;;;;5.56;100.00;100921.25;5093639;28;20023;-69
2021/10/12 03:28:51;;;;;;;;;;;;;;;5.52;100.00;100924.13;5093606;28;20022;-68
2021/10/12 03:31:18;;;;;;;;;;;;;;;5.58;100.00;100916.66;5093689;28;20368;-69
2021/10/12 03:33:44;;;;;;;;;;;;;;;5.62;100.00;100907.44;5093304;28;20015;-68
2021/10/12 03:36:15;;;;;;;;;;;;;;;5.61;100.00;100893.13;5093537;28;19930;-69
2021/10/12 03:38:43;;;;;;;;;;;;;;;5.63;100.00;100893.03;5093561;28;19924;-69
2021/10/12 03:41:09;;;;;;;;;;;;;;;5.64;100.00;100889.38;5093532;28;19930;-68
2021/10/12 03:43:36;;;;;;;;;;;;;;;5.67;100.00;100897.28;5093552;28;19928;-68
2021/10/12 03:46:03;;;;;;;;;;;;;;;5.70;100.00;100895.28;5093254;28;20368;-68
2021/10/12 03:48:29;;;;;;;;;;;;;;;5.70;100.00;100895.28;5095545;28;19985;-68
2021/10/12 03:50:55;;;;;;;;;;;;;;;5.70;100.00;100894.38;5091803;28;20015;-69
2021/10/12 03:53:22;;;;;;;;;;;;;;;5.72;100.00;100892.50;5092936;28;19931;-68
2021/10/12 03:55:49;;;;;;;;;;;;;;;5.74;100.00;100884.31;5093170;28;20023;-68
2021/10/12 03:58:16;;;;;;;;;;;;;;;5.75;100.00;100881.53;5094389;28;19928;-69
2021/10/12 04:00:42;;;;;;;;;;;;;;;5.80;100.00;100879.44;5096495;28;19936;-69
2021/10/12 04:03:08;;;;;;;;;;;;;;;5.84;100.00;100882.81;5099891;28;19924;-70
2021/10/12 04:05:35;;;;;;;;;;;;;;;5.86;100.00;100873.66;5094010;28;20427;-69
2021/10/12 04:08:01;;;;;;;;;;;;;;;5.91;100.00;100870.72;5112917;28;19924;-69
2021/10/12 04:10:27;;;;;;;;;;;;;;;5.93;100.00;100868.78;5113217;28;20018;-69
2021/10/12 04:12:55;;;;;;;;;;;;;;;5.93;100.00;100855.31;5111721;28;19923;-69
2021/10/12 04:15:21;;;;;;;;;;;;;;;5.98;100.00;100857.78;5112036;28;20030;-69
2021/10/12 04:17:48;;;;;;;;;;;;;;;5.98;100.00;100850.53;5105454;28;19924;-70
2021/10/12 04:20:15;;;;;;;;;;;;;;;6.01;100.00;100844.09;5110798;28;19930;-72
2021/10/12 04:22:41;;;;;;;;;;;;;;;6.05;100.00;100842.97;5113074;28;19969;-72
2021/10/12 04:25:08;;;;;;;;;;;;;;;6.09;100.00;100847.19;5099696;28;20026;-71
2021/10/12 04:27:34;;;;;;;;;;;;;;;6.14;100.00;100837.00;5107493;28;20022;-70
2021/10/12 04:30:02;;;;;;;;;;;;;;;6.19;100.00;100832.22;5111126;28;19924;-70
2021/10/12 04:32:28;;;;;;;;;;;;;;;6.27;100.00;100814.72;5111781;28;19969;-70
2021/10/12 04:34:55;;;;;;;;;;;;;;;6.30;100.00;100809.97;5112882;28;20454;-69
2021/10/12 04:37:21;;;;;;;;;;;;;;;6.32;100.00;100805.38;5112548;28;20259;-70
2021/10/12 04:39:47;;;;;;;;;;;;;;;6.39;100.00;100795.06;5112608;28;20023;-69
2021/10/12 04:42:14;;;;;;;;;;;;;;;6.41;100.00;100793.13;5112892;28;20026;-70
2021/10/12 04:44:40;;;;;;;;;;;;;;;6.43;100.00;100798.44;5112946;28;20011;-70
2021/10/12 04:47:09;;;;;;;;;;;;;;;6.42;100.00;100800.25;5112313;28;20324;-69
2021/10/12 04:49:35;;;;;;;;;;;;;;;6.41;100.00;100809.31;5111352;28;20015;-71
2021/10/12 04:52:01;;;;;;;;;;;;;;;6.41;100.00;100798.53;5112712;28;20027;-71
2021/10/12 04:54:29;;;;;;;;;;;;;;;6.41;100.00;100801.22;5112691;28;19924;-72
2021/10/12 04:56:55;;;;;;;;;;;;;;;6.42;100.00;100810.19;5112215;28;20023;-72
2021/10/12 04:59:22;;;;;;;;;;;;;;;6.43;100.00;100804.69;5112462;28;19965;-72
2021/10/12 05:01:48;;;;;;;;;;;;;;;6.45;100.00;100801.91;5093817;28;20378;-71
2021/10/12 05:04:15;;;;;;;;;;;;;;;6.44;100.00;100801.06;5110659;28;20361;-69
2021/10/12 05:06:42;;;;;;;;;;;;;;;6.45;100.00;100793.81;5110913;28;19966;-69
2021/10/12 05:09:09;;;;;;;;;;;;;;;6.45;100.00;100789.28;5111862;28;20383;-69
2021/10/12 05:11:36;;;;;;;;;;;;;;;6.45;100.00;100785.72;5112572;28;19935;-69
2021/10/12 05:14:02;;;;;;;;;;;;;;;6.45;100.00;100777.63;5112019;28;20503;-69
2021/10/12 05:16:30;;;;;;;;;;;;;;;6.44;100.00;100770.50;5094710;28;20027;-71
2021/10/12 05:18:58;;;;;;;;;;;;;;;6.46;100.00;100774.84;5091496;28;20353;-71
2021/10/12 05:21:25;;;;;;;;;;;;;;;6.45;100.00;100770.41;5091909;28;19946;-71
2021/10/12 05:23:52;;;;;;;;;;;;;;;6.46;100.00;100757.81;5091492;28;19930;-71
2021/10/12 05:26:18;;;;;;;;;;;;;;;6.44;100.00;100760.59;5091440;28;20014;-72
2021/10/12 05:28:46;;;;;;;;;;;;;;;6.42;100.00;100758.97;5091993;28;19939;-71
2021/10/12 05:31:12;;;;;;;;;;;;;;;6.45;100.00;100751.53;5091698;28;19994;-71
2021/10/12 05:33:38;;;;;;;;;;;;;;;6.43;100.00;100745.38;5091219;28;19930;-71
2021/10/12 05:36:05;;;;;;;;;;;;;;;6.46;100.00;100744.31;5090600;28;19930;-71
2021/10/12 05:38:33;;;;;;;;;;;;;;;6.45;100.00;100753.38;5090478;28;20010;-69
2021/10/12 05:40:59;;;;;;;;;;;;;;;6.45;100.00;100769.53;5090982;28;20417;-68
2021/10/12 05:43:25;;;;;;;;;;;;;;;6.45;100.00;100778.50;5091042;28;20010;-69
2021/10/12 05:45:52;;;;;;;;;;;;;;;6.45;100.00;100770.41;5089634;28;20402;-74
2021/10/12 05:48:18;;;;;;;;;;;;;;;6.47;100.00;100779.28;5091046;28;19935;-74
2021/10/12 05:50:46;;;;;;;;;;;;;;;6.45;100.00;100761.44;5090692;28;20027;-74
2021/10/12 05:53:25;;;;;;;;;;;;;;;6.46;100.00;100758.66;5091086;28;19978;-74
2021/10/12 05:55:56;;;;;;;;;;;;;;;6.49;100.00;100758.47;5091026;28;19931;-74
2021/10/12 05:58:29;;;;;;;;;;;;;;;6.52;100.00;100760.09;5091359;28;20308;-73
2021/10/12 06:00:56;;;;;;;;;;;;;;;6.51;100.00;100756.53;5089789;28;19924;-74
2021/10/12 06:03:22;;;;;;;;;;;;;;;6.52;100.00;100763.66;5091143;28;19934;-74
2021/10/12 06:05:48;;;;;;;;;;;;;;;6.53;100.00;100756.44;5091008;28;19960;-74
2021/10/12 06:08:15;;;;;;;;;;;;;;;6.54;100.00;100750.94;5089725;28;19924;-74
2021/10/12 06:10:41;;;;;;;;;;;;;;;6.61;100.00;100755.94;5091191;28;20023;-74
2021/10/12 06:13:10;;;;;;;;;;;;;;;6.65;100.00;100757.47;5091028;28;20418;-74
2021/10/12 06:15:37;;;;;;;;;;;;;;;6.66;100.00;100756.53;5089765;28;19932;-75
2021/10/12 06:18:03;;;;;;;;;;;;;;;6.74;100.00;100756.88;5091009;28;19996;-74
2021/10/12 06:20:29;;;;;;;;;;;;;;;6.77;100.00;100756.69;5091471;28;20015;-74
2021/10/12 06:22:56;;;;;;;;;;;;;;;6.81;100.00;100754.66;5094723;28;20364;-69
2021/10/12 06:25:22;;;;;;;;;;;;;;;6.82;100.00;100759.09;5094559;28;19967;-69
2021/10/12 06:27:48;;;;;;;;;;;;;;;6.82;100.00;100746.47;5094624;28;20018;-69
2021/10/12 06:30:16;;;;;;;;;;;;;;;6.86;100.00;100752.53;5094736;28;20018;-69
2021/10/12 06:32:43;;;;;;;;;;;;;;;6.90;100.00;100754.06;5094761;28;19930;-69
2021/10/12 06:35:09;;;;;;;;;;;;;;;6.89;100.00;100759.56;5094786;28;20022;-70
2021/10/12 06:37:35;;;;;;;;;;;;;;;6.92;100.00;100748.56;5094383;28;20322;-70
2021/10/12 06:40:02;;;;;;;;;;;;;;;6.93;100.00;100751.16;5094566;28;19934;-70
2021/10/12 06:42:28;;;;;;;;;;;;;;;6.98;100.00;100764.38;5094432;28;19967;-70
2021/10/12 06:44:54;;;;;;;;;;;;;;;6.99;100.00;100756.16;5094504;28;20023;-70
2021/10/12 06:47:22;;;;;;;;;;;;;;;7.03;100.00;100757.69;5094361;28;20387;-70
2021/10/12 06:49:49;;;;;;;;;;;;;;;7.18;100.00;100758.50;5094473;28;19931;-70
2021/10/12 06:52:15;;;;;;;;;;;;;;;7.29;100.00;100759.63;5094494;28;20297;-70
2021/10/12 06:54:44;;;;;;;;;;;;;;;7.34;100.00;100760.19;5094263;28;19930;-70
2021/10/12 06:57:12;;;;;;;;;;;;;;;7.40;100.00;100756.19;5094166;28;19942;-70
2021/10/12 06:59:38;;;;;;;;;;;;;;;7.43;100.00;100759.56;5094234;28;19973;-70
2021/10/12 07:02:04;;;;;;;;;;;;;;;7.49;100.00;100759.13;5094098;28;20014;-70
2021/10/12 07:04:32;;;;;;;;;;;;;;;7.48;100.00;100764.66;5094016;28;20374;-70
2021/10/12 07:06:58;;;;;;;;;;;;;;;7.45;100.00;100762.16;5093909;28;19963;-70
2021/10/12 07:09:24;;;;;;;;;;;;;;;7.52;100.00;100769.75;5094046;28;20023;-70
2021/10/12 07:11:50;;;;;;;;;;;;;;;7.51;100.00;100765.31;5094117;28;20114;-70
2021/10/12 07:14:17;;;;;;;;;;;;;;;7.41;100.00;100763.34;5094049;28;20019;-71
2021/10/12 07:16:43;;;;;;;;;;;;;;;7.43;100.00;100756.88;5093776;28;19964;-71
2021/10/12 07:19:09;;;;;;;;;;;;;;;7.50;100.00;100760.03;5094111;28;20022;-70
2021/10/12 07:21:37;;;;;;;;;;;;;;;7.57;100.00;100764.03;5093409;28;20292;-70
2021/10/12 07:24:03;;;;;;;;;;;;;;;7.61;100.00;100756.59;5093629;28;20014;-70
2021/10/12 07:26:30;;;;;;;;;;;;;;;7.67;100.00;100750.75;5096111;28;19959;-70
2021/10/12 07:28:58;;;;;;;;;;;;;;;7.67;100.00;100740.81;5093636;28;19946;-70
2021/10/12 07:31:25;;;;;;;;;;;;;;;7.80;100.00;100751.66;5093276;28;20383;-70
2021/10/12 07:33:51;;;;;;;;;;;;;;;7.83;100.00;100747.84;5093450;28;20367;-70
2021/10/12 07:36:17;;;;;;;;;;;;;;;7.90;100.00;100749.16;5093234;28;19928;-70
2021/10/12 07:38:45;;;;;;;;;;;;;;;7.91;100.00;100759.03;5093299;28;20010;-70
2021/10/12 07:41:12;;;;;;;;;;;;;;;7.92;100.00;100754.47;5093433;28;19928;-74
2021/10/12 07:43:38;;;;;;;;;;;;;;;7.84;100.00;100761.28;5093172;28;19950;-74
2021/10/12 07:46:05;;;;;;;;;;;;;;;7.80;100.00;100757.06;5091937;28;19931;-74
2021/10/12 07:48:31;;;;;;;;;;;;;;;7.73;100.00;100758.44;5093330;28;20388;-74
2021/10/12 07:50:57;;;;;;;;;;;;;;;7.71;100.00;100755.00;5093109;28;19928;-74
2021/10/12 07:53:23;;;;;;;;;;;;;;;7.70;100.00;100756.81;5091889;28;20450;-74
2021/10/12 07:55:53;;;;;;;;;;;;;;;7.74;100.00;100748.47;5092854;28;20162;-75
2021/10/12 07:58:20;;;;;;;;;;;;;;;7.75;100.00;100751.09;5093314;28;20381;-75
2021/10/12 08:00:46;;;;;;;;;;;;;;;7.78;100.00;100745.47;5093090;28;20022;-74
2021/10/12 08:03:13;;;;;;;;;;;;;;;7.80;100.00;100751.66;5092974;28;20027;-74
2021/10/12 08:05:39;;;;;;;;;;;;;;;7.86;100.00;100743.09;5093002;28;19928;-75
2021/10/12 08:08:06;;;;;;;;;;;;;;;7.80;100.00;100740.84;5092901;28;20350;-74
2021/10/12 08:10:33;;;;;;;;;;;;;;;7.72;100.00;100737.78;5093005;28;19923;-74
2021/10/12 08:13:03;;;;;;;;;;;;;;;7.68;100.00;100739.84;5092461;28;19934;-74
2021/10/12 08:15:30;;;;;;;;;;;;;;;7.69;100.00;100741.56;5092796;28;20322;-74
2021/10/12 08:17:56;;;;;;;;;;;;;;;7.75;100.00;100743.00;5092838;28;19928;-74
2021/10/12 08:20:22;;;;;;;;;;;;;;;7.91;100.00;100732.00;5092826;28;19930;-74
2021/10/12 08:22:49;;;;;;;;;;;;;;;8.12;100.00;100737.69;5092566;28;19930;-74
2021/10/12 08:25:15;;;;;;;;;;;;;;;8.16;100.00;100738.34;5092733;28;20367;-74
2021/10/12 08:27:43;;;;;;;;;;;;;;;8.13;100.00;100742.13;5092482;28;20307;-73
2021/10/12 08:30:11;;;;;;;;;;;;;;;8.15;100.00;100740.22;5092276;28;20010;-74
2021/10/12 08:32:38;;;;;;;;;;;;;;;8.26;100.00;100742.13;5092554;28;20022;-74
2021/10/12 08:35:06;;;;;;;;;;;;;;;8.25;100.00;100731.44;5092318;28;20019;-74
2021/10/12 08:37:33;;;;;;;;;;;;;;;8.18;100.00;100723.75;5092161;28;19930;-74
2021/10/12 08:40:00;;;;;;;;;;;;;;;8.09;100.00;100729.81;5092791;28;20022;-74
2021/10/12 08:42:29;;;;;;;;;;;;;;;7.97;100.00;100731.53;5092354;28;19927;-71
2021/10/12 08:44:56;;;;;;;;;;;;;;;7.88;100.00;100727.66;5091402;28;19924;-70
2021/10/12 08:47:29;;;;;;;;;;;;;;;7.84;100.00;100731.56;5092021;28;19950;-70
2021/10/12 08:49:57;;;;;;;;;;;;;;;7.94;100.00;100729.06;5091687;28;20398;-70
2021/10/12 08:52:24;;;;;;;;;;;;;;;7.98;100.00;100725.16;5092094;28;20022;-70
2021/10/12 08:54:50;;;;;;;;;;;;;;;8.15;100.00;100723.09;5091896;28;20019;-75
2021/10/12 08:57:27;;;;;;;;;;;;;;;8.43;100.00;100727.41;5090679;28;20472;-74
2021/10/12 08:59:54;;;;;;;;;;;;;;;8.59;100.00;100729.91;5092115;28;19931;-74
2021/10/12 09:02:23;;;;;;;;;;;;;;;8.74;100.00;100727.91;5091906;28;19947;-74
2021/10/12 09:04:50;;;;;;;;;;;;;;;8.87;100.00;100717.91;5090470;28;19924;-74
2021/10/12 09:07:18;;;;;;;;;;;;;;;8.93;100.00;100716.59;5091385;28;19928;-71
2021/10/12 09:09:45;;;;;;;;;;;;;;;9.00;100.00;100725.09;5091677;28;20458;-71
2021/10/12 09:12:11;;;;;;;;;;;;;;;8.87;100.00;100719.72;5091636;28;19932;-71
2021/10/12 09:14:50;;;;;;;;;;;;;;;8.83;100.00;100710.13;5091694;28;19930;-70
2021/10/12 09:17:27;;;;;;;;;;;;;;;8.83;100.00;100711.00;5091517;28;20052;-70
2021/10/12 09:19:55;;;;;;;;;;;;;;;8.99;100.00;100699.88;5092123;28;19930;-70
2021/10/12 09:22:21;;;;;;;;;;;;;;;9.13;100.00;100693.41;5093795;28;19956;-71
2021/10/12 09:24:48;;;;;;;;;;;;;;;9.96;100.00;100680.72;5091413;28;19931;-70
2021/10/12 09:27:16;;;;;;;;;;;;;;;11.06;100.00;100669.09;5090953;28;19947;-70
2021/10/12 09:29:47;;;;;;;;;;;;;;;11.56;100.00;100657.66;5091411;28;19947;-71
2021/10/12 09:32:14;;;;;;;;;;;;;;;11.49;100.00;100651.88;5091477;28;19924;-70
2021/10/12 09:34:42;;;;;;;;;;;;;;;11.59;100.00;100660.09;5091305;28;19924;-70
2021/10/12 09:37:10;;;;;;;;;;;;;;;11.02;100.00;100656.78;5091284;28;19924;-71
2021/10/12 09:39:37;;;;;;;;;;;;;;;10.76;100.00;100659.84;5091195;28;20372;-70
2021/10/12 09:42:05;;;;;;;;;;;;;;;10.55;100.00;100654.31;5091535;28;20027;-70
2021/10/12 09:44:32;;;;;;;;;;;;;;;10.56;100.00;100664.19;5090969;28;20291;-70
2021/10/12 09:47:06;;;;;;;;;;;;;;;10.66;100.00;100658.88;5091362;28;19924;-70
2021/10/12 09:49:32;;;;;;;;;;;;;;;10.49;100.00;100652.97;5091411;28;19978;-70
2021/10/12 09:52:01;;;;;;;;;;;;;;;11.12;100.00;100646.88;5091287;28;19967;-70
2021/10/12 09:54:30;;;;;;;;;;;;;;;11.55;100.00;100648.59;5091491;28;20386;-70
2021/10/12 09:56:57;;;;;;;;;;;;;;;11.58;100.00;100652.06;5094994;28;19924;-70
2021/10/12 09:59:23;;;;;;;;;;;;;;;11.55;100.00;100651.31;5095290;28;20011;-70
2021/10/12 10:01:50;;;;;;;;;;;;;;;10.91;100.00;100643.25;5095156;28;20332;-70
2021/10/12 10:04:18;;;;;;;;;;;;;;;10.71;100.00;100648.50;5094971;28;20014;-70
2021/10/12 10:06:45;;;;;;;;;;;;;;;10.65;100.00;100643.56;5094959;28;19928;-70
2021/10/12 10:09:12;;;;;;;;;;;;;;;10.84;100.00;100637.47;5095225;28;19924;-70
2021/10/12 10:11:42;;;;;;;;;;;;;;;11.13;100.00;100632.31;5095288;28;19924;-70
2021/10/12 10:14:09;;;;;;;;;;;;;;;11.86;100.00;100631.47;5094995;28;19972;-71
2021/10/12 10:16:37;;;;;;;;;;;;;;;11.92;100.00;100617.34;5094447;28;19972;-70
2021/10/12 10:19:06;;;;;;;;;;;;;;;11.93;100.00;100626.34;5094310;28;20011;-70
2021/10/12 10:21:36;;;;;;;;;;;;;;;11.51;100.00;100619.97;5094918;28;19931;-70
2021/10/12 10:24:08;;;;;;;;;;;;;;;12.33;100.00;100625.53;5094647;28;19924;-71
2021/10/12 10:26:36;;;;;;;;;;;;;;;12.70;100.00;100625.75;5094487;28;19928;-71
2021/10/12 10:29:23;;;;;;;;;;;;;;;12.21;100.00;100622.06;5094745;28;20442;-71
2021/10/12 10:31:52;;;;;;;;;;;;;;;12.21;100.00;100620.22;5094729;28;19924;-71
2021/10/12 10:34:28;;;;;;;;;;;;;;;12.81;100.00;100619.31;5094785;28;19931;-71
2021/10/12 10:37:10;;;;;;;;;;;;;;;13.76;100.00;100597.72;5092961;28;19924;-71
2021/10/12 10:39:37;;;;;;;;;;;;;;;13.63;100.00;100602.66;5094653;28;19935;-71
2021/10/12 10:42:03;;;;;;;;;;;;;;;13.65;100.00;100600.66;5094606;28;20467;-71
2021/10/12 10:44:44;;;;;;;;;;;;;;;12.97;100.00;100601.56;5094633;28;19930;-71
2021/10/12 10:47:32;;;;;;;;;;;;;;;12.77;100.00;100612.44;5093973;28;19928;-71
2021/10/12 10:50:09;;;;;;;;;;;;;;;12.99;100.00;100599.56;5094454;28;19928;-71
2021/10/12 10:52:43;;;;;;;;;;;;;;;12.55;100.00;100597.22;5094447;28;19934;-71
2021/10/12 10:55:10;;;;;;;;;;;;;;;13.01;100.00;100594.81;5094192;28;19924;-71
2021/10/12 10:57:37;;;;;;;;;;;;;;;13.50;100.00;100584.75;5094053;28;20017;-71
2021/10/12 11:00:33;;;;;;;;;;;;;;;13.88;100.00;100588.38;5094356;28;20024;-71
2021/10/12 11:03:01;;;;;;;;;;;;;;;13.78;100.00;100587.53;5094062;28;20477;-70
2021/10/12 11:05:31;;;;;;;;;;;;;;;13.62;100.00;100584.59;5094208;28;20369;-70
2021/10/12 11:08:06;;;;;;;;;;;;;;;13.68;100.00;100575.78;5093564;28;20010;-71
2021/10/12 11:10:32;;;;;;;;;;;;;;;14.17;100.00;100581.06;5094177;28;20304;-70
2021/10/12 11:12:58;;;;;;;;;;;;;;;14.32;100.00;100574.06;5093743;28;20031;-71
2021/10/12 11:15:25;;;;;;;;;;;;;;;15.00;100.00;100571.88;5094043;28;19934;-71
2021/10/12 11:18:05;;;;;;;;;;;;;;;14.59;100.00;100571.44;5093843;28;20026;-71
2021/10/12 11:20:38;;;;;;;;;;;;;;;14.89;100.00;100570.25;5092524;28;19928;-71
2021/10/12 11:23:05;;;;;;;;;;;;;;;14.55;100.00;100573.63;5093754;28;20034;-71
2021/10/12 11:25:31;;;;;;;;;;;;;;;13.66;100.00;100565.03;5096617;28;19928;-71
2021/10/12 11:28:06;;;;;;;;;;;;;;;13.47;100.00;100565.97;5093513;28;20030;-71
2021/10/12 11:30:36;;;;;;;;;;;;;;;13.39;100.00;100555.78;5093917;28;19970;-71
2021/10/12 11:33:02;;;;;;;;;;;;;;;13.29;100.00;100554.06;5093582;28;20369;-71
2021/10/12 11:35:37;;;;;;;;;;;;;;;12.96;100.00;100556.25;5093747;28;20438;-71
2021/10/12 11:38:04;;;;;;;;;;;;;;;13.18;100.00;100550.47;5093371;28;19931;-71
2021/10/12 11:40:31;;;;;;;;;;;;;;;13.41;100.00;100550.19;5093553;28;20018;-71
2021/10/12 11:42:59;;;;;;;;;;;;;;;13.98;100.00;100557.47;5093449;28;19928;-71
2021/10/12 11:45:25;;;;;;;;;;;;;;;14.27;100.00;100548.22;5092871;28;20298;-71
2021/10/12 11:47:52;;;;;;;;;;;;;;;13.82;100.00;100537.13;5093003;28;20231;-72
2021/10/12 11:50:18;;;;;;;;;;;;;;;14.26;100.00;100538.31;5093602;28;19924;-71
2021/10/12 11:52:48;;;;;;;;;;;;;;;14.31;100.00;100533.25;5093313;28;20023;-71
2021/10/12 11:55:15;;;;;;;;;;;;;;;14.54;100.00;100537.28;5093544;28;20015;-71
2021/10/12 11:57:44;;;;;;;;;;;;;;;14.70;100.00;100533.03;5093142;28;19935;-71
2021/10/12 12:00:11;;;;;;;;;;;;;;;14.92;100.00;100533.56;5093208;28;19963;-71
2021/10/12 12:02:41;;;;;;;;;;;;;;;14.65;100.00;100532.63;5092060;28;19931;-71
2021/10/12 12:05:09;;;;;;;;;;;;;;;14.10;100.00;100530.81;5092964;28;19985;-71
2021/10/12 12:07:38;;;;;;;;;;;;;;;14.51;100.00;100523.94;5092772;28;20011;-72
2021/10/12 12:10:07;;;;;;;;;;;;;;;14.92;100.00;100526.19;5091487;28;20020;-71
2021/10/12 12:12:33;;;;;;;;;;;;;;;14.47;100.00;100532.56;5092743;28;20349;-71
2021/10/12 12:14:59;;;;;;;;;;;;;;;14.44;100.00;100530.16;5092790;28;20023;-72
2021/10/12 12:17:27;;;;;;;;;;;;;;;13.73;100.00;100527.13;5092486;28;19924;-72
2021/10/12 12:19:54;;;;;;;;;;;;;;;12.67;100.00;100532.63;5091350;28;19928;-71
2021/10/12 12:22:22;;;;;;;;;;;;;;;11.92;100.00;100530.31;5092453;28;20379;-72
2021/10/12 12:24:52;;;;;;;;;;;;;;;12.01;100.00;100536.78;5092249;28;19924;-72
2021/10/12 12:27:20;;;;;;;;;;;;;;;11.87;100.00;100522.53;5090954;28;20288;-71
2021/10/12 12:29:56;;;;;;;;;;;;;;;12.61;100.00;100519.56;5092507;28;19955;-72
2021/10/12 12:32:23;;;;;;;;;;;;;;;12.36;100.00;100519.97;5092381;28;20039;-72
2021/10/12 12:34:56;;;;;;;;;;;;;;;12.02;100.00;100524.91;5092206;28;20011;-69